< Cyclone 199108 1991 Season Cyclone 199110 >
Cyclone 199109 (FIFI)
General InformationTrack Information on Google MapsDetailed Wind InformationList of All Images || ResourceGoogle EarthGE AnimationAtom FeedGeoJSON
Detalied Best Track (Time Zone = UTC)
Year Month Day Hour Lat. Long. Pressure (hPa) Wind (kt) Class Image Chart
1991 4 15 00 -10.7 103.2 1003 25 2 Image --
1991 4 15 06 -11.1 103.1 1002 25 2 Image --
1991 4 15 12 -11.5 103.0 1000 25 2 Image --
1991 4 15 18 -11.9 102.9 1000 25 2 Image --
1991 4 16 00 -12.1 102.8 1000 25 2 Image --
1991 4 16 06 -12.3 102.7 998 30 2 Image --
1991 4 16 12 -12.4 102.6 998 30 2 Image --
1991 4 16 18 -12.5 102.6 995 35 3 Image --
1991 4 17 00 -12.6 102.6 990 45 3 Image --
1991 4 17 06 -13.2 102.6 985 50 4 Image --
1991 4 17 12 -13.8 102.4 980 55 4 Image --
1991 4 17 18 -14.4 102.2 975 60 4 Image --
1991 4 18 00 -15.2 101.9 975 60 4 Image --
1991 4 18 06 -16.2 101.9 975 60 4 Image --
1991 4 18 12 -17.2 102.2 978 60 4 Image --
1991 4 18 18 -18.1 102.8 980 55 4 Image --
1991 4 19 00 -19.2 103.7 980 55 4 Image --
1991 4 19 06 -20.4 104.4 985 50 4 Image --
1991 4 19 12 -21.5 104.9 990 40 3 Image --
1991 4 19 18 -22.4 105.4 1000 30 2 Image --
1991 4 20 00 -26.4 107.7 1000 35 3 Image --
1991 4 20 06 -27.4 107.9 1002 45 3 Image --
1991 4 20 12 -29.1 108.9 995 50 4 Image --
1991 4 20 18 -30.2 110.1 995 50 4 Image --
1991 4 21 00 -31.3 111.4 990 50 4 Image --
1991 4 21 06 -34.2 114.0 990 50 4 Image --
1991 4 21 12 -36.9 115.5 990 50 4 Image --
< Cyclone 199108 1991 Season Cyclone 199110 >

Help